sensor_id;sensor_type;location;lat;lon;timestamp;temperature;humidity
9215;DHT22;4642;51.364;6.788;2023-02-01T00:00:12;6.40;99.90
9215;DHT22;4642;51.364;6.788;2023-02-01T00:02:37;6.40;99.90
9215;DHT22;4642;51.364;6.788;2023-02-01T00:05:07;6.40;99.90
9215;DHT22;4642;51.364;6.788;2023-02-01T00:07:34;6.40;99.90
9215;DHT22;4642;51.364;6.788;2023-02-01T00:09:59;6.40;99.90
9215;DHT22;4642;51.364;6.788;2023-02-01T00:12:25;6.40;99.90
9215;DHT22;4642;51.364;6.788;2023-02-01T00:14:50;6.40;99.90
9215;DHT22;4642;51.364;6.788;2023-02-01T00:17:16;6.40;99.90
9215;DHT22;4642;51.364;6.788;2023-02-01T00:19:42;6.30;99.90
9215;DHT22;4642;51.364;6.788;2023-02-01T00:22:07;6.30;99.90
9215;DHT22;4642;51.364;6.788;2023-02-01T00:24:33;6.30;99.90
9215;DHT22;4642;51.364;6.788;2023-02-01T00:26:58;6.30;99.90
9215;DHT22;4642;51.364;6.788;2023-02-01T00:29:24;6.40;99.90
9215;DHT22;4642;51.364;6.788;2023-02-01T00:31:51;6.40;99.90
9215;DHT22;4642;51.364;6.788;2023-02-01T00:34:18;6.40;99.90
9215;DHT22;4642;51.364;6.788;2023-02-01T00:36:44;6.40;99.90
9215;DHT22;4642;51.364;6.788;2023-02-01T00:39:10;6.40;99.90
9215;DHT22;4642;51.364;6.788;2023-02-01T00:41:36;6.40;99.90
9215;DHT22;4642;51.364;6.788;2023-02-01T00:44:02;6.40;99.90
9215;DHT22;4642;51.364;6.788;2023-02-01T00:46:27;6.40;99.90
9215;DHT22;4642;51.364;6.788;2023-02-01T00:48:54;6.40;99.90
9215;DHT22;4642;51.364;6.788;2023-02-01T00:51:22;6.40;99.90
9215;DHT22;4642;51.364;6.788;2023-02-01T00:53:47;6.30;99.90
9215;DHT22;4642;51.364;6.788;2023-02-01T00:56:13;6.30;99.90
9215;DHT22;4642;51.364;6.788;2023-02-01T00:58:39;6.20;99.90
9215;DHT22;4642;51.364;6.788;2023-02-01T01:01:06;6.20;99.90
9215;DHT22;4642;51.364;6.788;2023-02-01T01:03:32;6.20;99.90
9215;DHT22;4642;51.364;6.788;2023-02-01T01:05:59;6.20;99.90
9215;DHT22;4642;51.364;6.788;2023-02-01T01:08:25;6.20;99.90
9215;DHT22;4642;51.364;6.788;2023-02-01T01:10:51;6.20;99.90
9215;DHT22;4642;51.364;6.788;2023-02-01T01:13:16;6.20;99.90
9215;DHT22;4642;51.364;6.788;2023-02-01T01:15:42;6.30;99.90
9215;DHT22;4642;51.364;6.788;2023-02-01T01:18:08;6.40;99.90
9215;DHT22;4642;51.364;6.788;2023-02-01T01:20:35;6.30;99.90
9215;DHT22;4642;51.364;6.788;2023-02-01T01:23:02;6.30;99.90
9215;DHT22;4642;51.364;6.788;2023-02-01T01:25:28;6.40;99.90
9215;DHT22;4642;51.364;6.788;2023-02-01T01:27:53;6.30;99.90
9215;DHT22;4642;51.364;6.788;2023-02-01T01:30:19;6.40;99.90
9215;DHT22;4642;51.364;6.788;2023-02-01T01:32:44;6.30;99.90
9215;DHT22;4642;51.364;6.788;2023-02-01T01:35:11;6.40;99.90
9215;DHT22;4642;51.364;6.788;2023-02-01T01:37:36;6.30;99.90
9215;DHT22;4642;51.364;6.788;2023-02-01T01:40:06;6.30;99.90
9215;DHT22;4642;51.364;6.788;2023-02-01T01:42:39;6.30;99.90
9215;DHT22;4642;51.364;6.788;2023-02-01T01:47:54;6.30;99.90
9215;DHT22;4642;51.364;6.788;2023-02-01T01:50:30;6.30;99.90
9215;DHT22;4642;51.364;6.788;2023-02-01T01:52:59;6.20;99.90
9215;DHT22;4642;51.364;6.788;2023-02-01T01:55:27;6.20;99.90
9215;DHT22;4642;51.364;6.788;2023-02-01T01:58:07;6.20;99.90
9215;DHT22;4642;51.364;6.788;2023-02-01T02:00:33;6.20;99.90
9215;DHT22;4642;51.364;6.788;2023-02-01T02:03:05;6.10;99.90
9215;DHT22;4642;51.364;6.788;2023-02-01T02:05:33;6.10;99.90
9215;DHT22;4642;51.364;6.788;2023-02-01T02:08:00;6.10;99.90
9215;DHT22;4642;51.364;6.788;2023-02-01T02:10:28;6.10;99.90
9215;DHT22;4642;51.364;6.788;2023-02-01T02:13:14;6.00;99.90
9215;DHT22;4642;51.364;6.788;2023-02-01T02:15:46;6.00;99.90
9215;DHT22;4642;51.364;6.788;2023-02-01T02:18:19;6.00;99.90
9215;DHT22;4642;51.364;6.788;2023-02-01T02:21:09;5.90;99.90
9215;DHT22;4642;51.364;6.788;2023-02-01T02:32:36;5.90;99.90
9215;DHT22;4642;51.364;6.788;2023-02-01T02:35:13;5.80;99.90
9215;DHT22;4642;51.364;6.788;2023-02-01T02:37:46;5.70;99.90
9215;DHT22;4642;51.364;6.788;2023-02-01T02:43:30;5.70;99.90
9215;DHT22;4642;51.364;6.788;2023-02-01T02:46:22;5.70;99.90
9215;DHT22;4642;51.364;6.788;2023-02-01T02:49:18;5.70;99.90
9215;DHT22;4642;51.364;6.788;2023-02-01T02:51:50;5.70;99.90
9215;DHT22;4642;51.364;6.788;2023-02-01T02:54:40;5.70;99.90
9215;DHT22;4642;51.364;6.788;2023-02-01T02:57:32;5.70;99.90
9215;DHT22;4642;51.364;6.788;2023-02-01T03:00:21;5.60;99.90
9215;DHT22;4642;51.364;6.788;2023-02-01T03:03:06;5.60;99.90
9215;DHT22;4642;51.364;6.788;2023-02-01T03:05:51;5.60;99.90
9215;DHT22;4642;51.364;6.788;2023-02-01T03:08:22;5.60;99.90
9215;DHT22;4642;51.364;6.788;2023-02-01T03:10:58;5.60;99.90
9215;DHT22;4642;51.364;6.788;2023-02-01T03:16:32;5.70;99.90
9215;DHT22;4642;51.364;6.788;2023-02-01T03:19:09;5.70;99.90
9215;DHT22;4642;51.364;6.788;2023-02-01T03:21:58;5.70;99.90
9215;DHT22;4642;51.364;6.788;2023-02-01T03:24:33;5.70;99.90
9215;DHT22;4642;51.364;6.788;2023-02-01T03:27:20;5.70;99.90
9215;DHT22;4642;51.364;6.788;2023-02-01T03:29:55;5.70;99.90
9215;DHT22;4642;51.364;6.788;2023-02-01T03:32:21;5.70;99.90
9215;DHT22;4642;51.364;6.788;2023-02-01T03:34:50;5.70;99.90
9215;DHT22;4642;51.364;6.788;2023-02-01T03:37:26;5.80;99.90
9215;DHT22;4642;51.364;6.788;2023-02-01T03:40:00;5.80;99.90
9215;DHT22;4642;51.364;6.788;2023-02-01T03:42:49;5.80;99.90
9215;DHT22;4642;51.364;6.788;2023-02-01T03:45:26;5.90;99.90
9215;DHT22;4642;51.364;6.788;2023-02-01T03:47:56;5.80;99.90
9215;DHT22;4642;51.364;6.788;2023-02-01T03:50:24;5.80;99.90
9215;DHT22;4642;51.364;6.788;2023-02-01T03:52:57;5.80;99.90
9215;DHT22;4642;51.364;6.788;2023-02-01T03:55:25;5.80;99.90
9215;DHT22;4642;51.364;6.788;2023-02-01T03:58:12;5.90;99.90
9215;DHT22;4642;51.364;6.788;2023-02-01T04:00:39;5.90;99.90
9215;DHT22;4642;51.364;6.788;2023-02-01T04:03:06;5.90;99.90
9215;DHT22;4642;51.364;6.788;2023-02-01T04:05:32;5.90;99.90
9215;DHT22;4642;51.364;6.788;2023-02-01T04:07:58;5.90;99.90
9215;DHT22;4642;51.364;6.788;2023-02-01T04:10:24;5.90;99.90
9215;DHT22;4642;51.364;6.788;2023-02-01T04:12:49;5.90;99.90
9215;DHT22;4642;51.364;6.788;2023-02-01T04:15:15;6.00;99.90
9215;DHT22;4642;51.364;6.788;2023-02-01T04:17:41;5.90;99.90
9215;DHT22;4642;51.364;6.788;2023-02-01T04:20:07;5.90;99.90
9215;DHT22;4642;51.364;6.788;2023-02-01T04:22:32;5.90;99.90
9215;DHT22;4642;51.364;6.788;2023-02-01T04:24:58;5.90;99.90
9215;DHT22;4642;51.364;6.788;2023-02-01T04:27:23;5.90;99.90
9215;DHT22;4642;51.364;6.788;2023-02-01T04:29:50;5.90;99.90
9215;DHT22;4642;51.364;6.788;2023-02-01T04:32:16;5.90;99.90
9215;DHT22;4642;51.364;6.788;2023-02-01T04:34:42;5.90;99.90
9215;DHT22;4642;51.364;6.788;2023-02-01T04:37:07;5.90;99.90
9215;DHT22;4642;51.364;6.788;2023-02-01T04:39:33;5.90;99.90
9215;DHT22;4642;51.364;6.788;2023-02-01T04:41:59;5.90;99.90
9215;DHT22;4642;51.364;6.788;2023-02-01T04:44:24;5.90;99.90
9215;DHT22;4642;51.364;6.788;2023-02-01T04:46:50;5.90;99.90
9215;DHT22;4642;51.364;6.788;2023-02-01T04:49:16;5.90;99.90
9215;DHT22;4642;51.364;6.788;2023-02-01T04:51:42;5.90;99.90
9215;DHT22;4642;51.364;6.788;2023-02-01T04:54:08;5.90;99.90
9215;DHT22;4642;51.364;6.788;2023-02-01T04:56:36;6.00;99.90
9215;DHT22;4642;51.364;6.788;2023-02-01T04:59:02;6.00;99.90
9215;DHT22;4642;51.364;6.788;2023-02-01T05:01:28;6.00;99.90
9215;DHT22;4642;51.364;6.788;2023-02-01T05:03:54;6.00;99.90
9215;DHT22;4642;51.364;6.788;2023-02-01T05:06:20;6.00;99.90
9215;DHT22;4642;51.364;6.788;2023-02-01T05:08:46;5.90;99.90
9215;DHT22;4642;51.364;6.788;2023-02-01T05:11:11;5.90;99.90
9215;DHT22;4642;51.364;6.788;2023-02-01T05:13:58;5.80;99.90
9215;DHT22;4642;51.364;6.788;2023-02-01T05:16:23;5.80;99.90
9215;DHT22;4642;51.364;6.788;2023-02-01T05:18:49;5.90;99.90
9215;DHT22;4642;51.364;6.788;2023-02-01T05:21:15;5.90;99.90
9215;DHT22;4642;51.364;6.788;2023-02-01T05:23:40;5.80;99.90
9215;DHT22;4642;51.364;6.788;2023-02-01T05:26:24;5.70;99.90
9215;DHT22;4642;51.364;6.788;2023-02-01T05:28:50;5.80;99.90
9215;DHT22;4642;51.364;6.788;2023-02-01T05:31:16;5.70;99.90
9215;DHT22;4642;51.364;6.788;2023-02-01T05:33:41;5.70;99.90
9215;DHT22;4642;51.364;6.788;2023-02-01T05:36:07;5.70;99.90
9215;DHT22;4642;51.364;6.788;2023-02-01T05:38:32;5.70;99.90
9215;DHT22;4642;51.364;6.788;2023-02-01T05:40:58;5.70;99.90
9215;DHT22;4642;51.364;6.788;2023-02-01T05:43:23;5.60;99.90
9215;DHT22;4642;51.364;6.788;2023-02-01T05:45:51;5.60;99.90
9215;DHT22;4642;51.364;6.788;2023-02-01T05:48:16;5.60;99.90
9215;DHT22;4642;51.364;6.788;2023-02-01T05:50:43;5.60;99.90
9215;DHT22;4642;51.364;6.788;2023-02-01T05:53:08;5.60;99.90
9215;DHT22;4642;51.364;6.788;2023-02-01T05:55:34;5.60;99.90
9215;DHT22;4642;51.364;6.788;2023-02-01T05:58:00;5.60;99.90
9215;DHT22;4642;51.364;6.788;2023-02-01T06:00:25;5.50;99.90
9215;DHT22;4642;51.364;6.788;2023-02-01T06:02:51;5.50;99.90
9215;DHT22;4642;51.364;6.788;2023-02-01T06:05:16;5.50;99.90
9215;DHT22;4642;51.364;6.788;2023-02-01T06:07:42;5.50;99.90
9215;DHT22;4642;51.364;6.788;2023-02-01T06:10:08;5.50;99.90
9215;DHT22;4642;51.364;6.788;2023-02-01T06:12:34;5.50;99.90
9215;DHT22;4642;51.364;6.788;2023-02-01T06:15:00;5.50;99.90
9215;DHT22;4642;51.364;6.788;2023-02-01T06:17:25;5.50;99.90
9215;DHT22;4642;51.364;6.788;2023-02-01T06:19:51;5.50;99.90
9215;DHT22;4642;51.364;6.788;2023-02-01T06:22:16;5.60;99.90
9215;DHT22;4642;51.364;6.788;2023-02-01T06:24:42;5.60;99.90
9215;DHT22;4642;51.364;6.788;2023-02-01T06:27:08;5.60;99.90
9215;DHT22;4642;51.364;6.788;2023-02-01T06:29:34;5.70;99.90
9215;DHT22;4642;51.364;6.788;2023-02-01T06:32:00;5.60;99.90
9215;DHT22;4642;51.364;6.788;2023-02-01T06:34:26;5.70;99.90
9215;DHT22;4642;51.364;6.788;2023-02-01T06:36:51;5.70;99.90
9215;DHT22;4642;51.364;6.788;2023-02-01T06:39:17;5.70;99.90
9215;DHT22;4642;51.364;6.788;2023-02-01T06:41:49;5.70;99.90
9215;DHT22;4642;51.364;6.788;2023-02-01T06:44:15;5.80;99.90
9215;DHT22;4642;51.364;6.788;2023-02-01T06:46:40;5.80;99.90
9215;DHT22;4642;51.364;6.788;2023-02-01T06:49:06;5.80;99.90
9215;DHT22;4642;51.364;6.788;2023-02-01T06:51:31;5.80;99.90
9215;DHT22;4642;51.364;6.788;2023-02-01T06:53:57;5.80;99.90
9215;DHT22;4642;51.364;6.788;2023-02-01T06:56:23;5.80;99.90
9215;DHT22;4642;51.364;6.788;2023-02-01T06:58:49;5.90;99.90
9215;DHT22;4642;51.364;6.788;2023-02-01T07:01:15;5.80;99.90
9215;DHT22;4642;51.364;6.788;2023-02-01T07:03:41;5.80;99.90
9215;DHT22;4642;51.364;6.788;2023-02-01T07:06:08;5.80;99.90
9215;DHT22;4642;51.364;6.788;2023-02-01T07:08:35;5.90;99.90
9215;DHT22;4642;51.364;6.788;2023-02-01T07:11:06;5.90;99.90
9215;DHT22;4642;51.364;6.788;2023-02-01T07:13:32;6.00;99.90
9215;DHT22;4642;51.364;6.788;2023-02-01T07:16:02;6.00;99.90
9215;DHT22;4642;51.364;6.788;2023-02-01T07:18:29;6.00;99.90
9215;DHT22;4642;51.364;6.788;2023-02-01T07:20:55;6.00;99.90
9215;DHT22;4642;51.364;6.788;2023-02-01T07:23:22;6.00;99.90
9215;DHT22;4642;51.364;6.788;2023-02-01T07:25:47;6.00;99.90
9215;DHT22;4642;51.364;6.788;2023-02-01T07:28:13;6.00;99.90
9215;DHT22;4642;51.364;6.788;2023-02-01T07:30:39;6.00;99.90
9215;DHT22;4642;51.364;6.788;2023-02-01T07:33:04;6.00;99.90
9215;DHT22;4642;51.364;6.788;2023-02-01T07:35:30;6.00;99.90
9215;DHT22;4642;51.364;6.788;2023-02-01T07:37:57;6.10;99.90
9215;DHT22;4642;51.364;6.788;2023-02-01T07:40:24;6.00;99.90
9215;DHT22;4642;51.364;6.788;2023-02-01T07:42:54;6.10;99.90
9215;DHT22;4642;51.364;6.788;2023-02-01T07:45:21;6.20;99.90
9215;DHT22;4642;51.364;6.788;2023-02-01T07:47:46;6.20;99.90
9215;DHT22;4642;51.364;6.788;2023-02-01T07:50:12;6.20;99.90
9215;DHT22;4642;51.364;6.788;2023-02-01T07:52:37;6.10;99.90
9215;DHT22;4642;51.364;6.788;2023-02-01T07:55:03;6.20;99.90
9215;DHT22;4642;51.364;6.788;2023-02-01T07:57:29;6.20;99.90
9215;DHT22;4642;51.364;6.788;2023-02-01T07:59:54;6.20;99.90
9215;DHT22;4642;51.364;6.788;2023-02-01T08:02:38;6.30;99.90
9215;DHT22;4642;51.364;6.788;2023-02-01T08:05:04;6.30;99.90
9215;DHT22;4642;51.364;6.788;2023-02-01T08:07:30;6.30;99.90
9215;DHT22;4642;51.364;6.788;2023-02-01T08:09:56;6.30;99.90
9215;DHT22;4642;51.364;6.788;2023-02-01T08:12:21;6.30;99.90
9215;DHT22;4642;51.364;6.788;2023-02-01T08:14:47;6.30;99.90
9215;DHT22;4642;51.364;6.788;2023-02-01T08:17:12;6.30;99.90
9215;DHT22;4642;51.364;6.788;2023-02-01T08:19:38;6.40;99.90
9215;DHT22;4642;51.364;6.788;2023-02-01T08:22:04;6.40;99.90
9215;DHT22;4642;51.364;6.788;2023-02-01T08:24:33;6.30;99.90
9215;DHT22;4642;51.364;6.788;2023-02-01T08:27:00;6.30;99.90
9215;DHT22;4642;51.364;6.788;2023-02-01T08:29:25;6.40;99.90
9215;DHT22;4642;51.364;6.788;2023-02-01T08:31:51;6.30;99.90
9215;DHT22;4642;51.364;6.788;2023-02-01T08:34:17;6.30;99.90
9215;DHT22;4642;51.364;6.788;2023-02-01T08:36:42;6.40;99.90
9215;DHT22;4642;51.364;6.788;2023-02-01T08:39:10;6.30;99.90
9215;DHT22;4642;51.364;6.788;2023-02-01T08:41:36;6.40;99.90
9215;DHT22;4642;51.364;6.788;2023-02-01T08:44:01;6.30;99.90
9215;DHT22;4642;51.364;6.788;2023-02-01T08:46:27;6.40;99.90
9215;DHT22;4642;51.364;6.788;2023-02-01T08:48:53;6.30;99.90
9215;DHT22;4642;51.364;6.788;2023-02-01T08:51:20;6.30;99.90
9215;DHT22;4642;51.364;6.788;2023-02-01T08:53:46;6.30;99.90
9215;DHT22;4642;51.364;6.788;2023-02-01T08:56:14;6.30;99.90
9215;DHT22;4642;51.364;6.788;2023-02-01T08:58:39;6.40;99.90
9215;DHT22;4642;51.364;6.788;2023-02-01T09:01:07;6.30;99.90
9215;DHT22;4642;51.364;6.788;2023-02-01T09:03:33;6.40;99.90
9215;DHT22;4642;51.364;6.788;2023-02-01T09:06:03;6.40;99.90
9215;DHT22;4642;51.364;6.788;2023-02-01T09:08:30;6.40;99.90
9215;DHT22;4642;51.364;6.788;2023-02-01T09:11:00;6.40;99.90
9215;DHT22;4642;51.364;6.788;2023-02-01T09:13:26;6.40;99.90
9215;DHT22;4642;51.364;6.788;2023-02-01T09:15:52;6.40;99.90
9215;DHT22;4642;51.364;6.788;2023-02-01T09:18:18;6.40;99.90
9215;DHT22;4642;51.364;6.788;2023-02-01T09:20:43;6.40;99.90
9215;DHT22;4642;51.364;6.788;2023-02-01T09:23:09;6.30;99.90
9215;DHT22;4642;51.364;6.788;2023-02-01T09:25:37;6.40;99.90
9215;DHT22;4642;51.364;6.788;2023-02-01T09:28:03;6.40;99.90
9215;DHT22;4642;51.364;6.788;2023-02-01T09:30:32;6.40;99.90
9215;DHT22;4642;51.364;6.788;2023-02-01T09:32:57;6.50;99.90
9215;DHT22;4642;51.364;6.788;2023-02-01T09:35:23;6.50;99.90
9215;DHT22;4642;51.364;6.788;2023-02-01T09:37:48;6.50;99.90
9215;DHT22;4642;51.364;6.788;2023-02-01T09:40:15;6.50;99.90
9215;DHT22;4642;51.364;6.788;2023-02-01T09:45:36;6.60;99.90
9215;DHT22;4642;51.364;6.788;2023-02-01T09:48:29;6.60;99.90
9215;DHT22;4642;51.364;6.788;2023-02-01T09:50:58;6.60;99.90
9215;DHT22;4642;51.364;6.788;2023-02-01T09:53:30;6.60;99.90
9215;DHT22;4642;51.364;6.788;2023-02-01T09:56:06;6.60;99.90
9215;DHT22;4642;51.364;6.788;2023-02-01T10:01:03;6.70;99.90
9215;DHT22;4642;51.364;6.788;2023-02-01T10:03:35;6.70;99.90
9215;DHT22;4642;51.364;6.788;2023-02-01T10:19:41;6.80;99.90
9215;DHT22;4642;51.364;6.788;2023-02-01T10:22:21;6.90;99.90
9215;DHT22;4642;51.364;6.788;2023-02-01T10:28:03;7.00;99.90
9215;DHT22;4642;51.364;6.788;2023-02-01T10:30:45;7.00;99.90
9215;DHT22;4642;51.364;6.788;2023-02-01T10:33:33;7.00;99.90
9215;DHT22;4642;51.364;6.788;2023-02-01T10:36:15;7.10;99.90
9215;DHT22;4642;51.364;6.788;2023-02-01T10:38:42;7.10;99.90
9215;DHT22;4642;51.364;6.788;2023-02-01T10:41:20;7.10;99.90
9215;DHT22;4642;51.364;6.788;2023-02-01T10:43:50;7.10;99.90
9215;DHT22;4642;51.364;6.788;2023-02-01T10:46:16;7.10;99.90
9215;DHT22;4642;51.364;6.788;2023-02-01T10:48:42;7.10;99.90
9215;DHT22;4642;51.364;6.788;2023-02-01T10:51:19;7.10;99.90
9215;DHT22;4642;51.364;6.788;2023-02-01T10:56:12;7.10;99.90
9215;DHT22;4642;51.364;6.788;2023-02-01T10:58:46;7.20;99.90
9215;DHT22;4642;51.364;6.788;2023-02-01T11:01:28;7.20;99.90
9215;DHT22;4642;51.364;6.788;2023-02-01T11:04:04;7.20;99.90
9215;DHT22;4642;51.364;6.788;2023-02-01T11:06:45;7.20;99.90
9215;DHT22;4642;51.364;6.788;2023-02-01T11:09:18;7.30;99.90
9215;DHT22;4642;51.364;6.788;2023-02-01T11:14:19;7.30;99.90
9215;DHT22;4642;51.364;6.788;2023-02-01T11:16:51;7.30;99.90
9215;DHT22;4642;51.364;6.788;2023-02-01T11:19:18;7.40;99.90
9215;DHT22;4642;51.364;6.788;2023-02-01T11:21:44;7.40;99.90
9215;DHT22;4642;51.364;6.788;2023-02-01T11:26:49;7.50;99.90
9215;DHT22;4642;51.364;6.788;2023-02-01T11:29:18;7.50;99.90
9215;DHT22;4642;51.364;6.788;2023-02-01T11:31:48;7.50;99.90
9215;DHT22;4642;51.364;6.788;2023-02-01T11:34:20;7.50;99.90
9215;DHT22;4642;51.364;6.788;2023-02-01T11:36:48;7.50;99.90
9215;DHT22;4642;51.364;6.788;2023-02-01T11:42:19;7.50;99.90
9215;DHT22;4642;51.364;6.788;2023-02-01T11:44:46;7.50;99.90
9215;DHT22;4642;51.364;6.788;2023-02-01T11:47:36;7.60;99.90
9215;DHT22;4642;51.364;6.788;2023-02-01T11:50:14;7.50;99.90
9215;DHT22;4642;51.364;6.788;2023-02-01T11:55:56;7.50;99.90
9215;DHT22;4642;51.364;6.788;2023-02-01T12:01:30;7.50;99.90
9215;DHT22;4642;51.364;6.788;2023-02-01T12:07:16;7.40;99.90
9215;DHT22;4642;51.364;6.788;2023-02-01T12:15:22;7.50;99.90
9215;DHT22;4642;51.364;6.788;2023-02-01T12:18:21;7.50;99.90
9215;DHT22;4642;51.364;6.788;2023-02-01T12:20:55;7.60;99.90
9215;DHT22;4642;51.364;6.788;2023-02-01T12:23:51;7.60;99.90
9215;DHT22;4642;51.364;6.788;2023-02-01T12:34:30;7.70;99.90
9215;DHT22;4642;51.364;6.788;2023-02-01T12:37:22;7.70;99.90
9215;DHT22;4642;51.364;6.788;2023-02-01T12:40:05;7.70;99.90
9215;DHT22;4642;51.364;6.788;2023-02-01T12:42:40;7.70;99.90
9215;DHT22;4642;51.364;6.788;2023-02-01T12:45:19;7.70;99.90
9215;DHT22;4642;51.364;6.788;2023-02-01T12:50:53;7.70;99.90
9215;DHT22;4642;51.364;6.788;2023-02-01T12:53:51;7.70;99.90
9215;DHT22;4642;51.364;6.788;2023-02-01T12:56:41;7.70;99.90
9215;DHT22;4642;51.364;6.788;2023-02-01T13:02:01;7.70;99.90
9215;DHT22;4642;51.364;6.788;2023-02-01T13:04:42;7.70;99.90
9215;DHT22;4642;51.364;6.788;2023-02-01T13:07:20;7.80;99.90
9215;DHT22;4642;51.364;6.788;2023-02-01T13:09:52;7.70;99.90
9215;DHT22;4642;51.364;6.788;2023-02-01T13:14:55;7.80;99.90
9215;DHT22;4642;51.364;6.788;2023-02-01T13:17:28;7.80;99.90
9215;DHT22;4642;51.364;6.788;2023-02-01T13:22:36;7.80;99.90
9215;DHT22;4642;51.364;6.788;2023-02-01T13:25:13;7.80;99.90
9215;DHT22;4642;51.364;6.788;2023-02-01T13:27:41;7.80;99.90
9215;DHT22;4642;51.364;6.788;2023-02-01T13:36:03;7.90;1.00
9215;DHT22;4642;51.364;6.788;2023-02-01T13:41:30;8.00;1.00
9215;DHT22;4642;51.364;6.788;2023-02-01T13:44:04;7.90;1.00
9215;DHT22;4642;51.364;6.788;2023-02-01T13:46:46;7.90;1.00
9215;DHT22;4642;51.364;6.788;2023-02-01T13:49:31;7.90;1.00
9215;DHT22;4642;51.364;6.788;2023-02-01T13:51:58;7.90;1.00
9215;DHT22;4642;51.364;6.788;2023-02-01T13:54:34;8.00;1.00
9215;DHT22;4642;51.364;6.788;2023-02-01T13:57:03;8.00;1.00
9215;DHT22;4642;51.364;6.788;2023-02-01T14:02:36;8.10;1.00
9215;DHT22;4642;51.364;6.788;2023-02-01T14:05:03;8.20;1.00
9215;DHT22;4642;51.364;6.788;2023-02-01T14:07:28;8.20;1.00
9215;DHT22;4642;51.364;6.788;2023-02-01T14:09:55;8.20;1.00
9215;DHT22;4642;51.364;6.788;2023-02-01T14:12:48;8.30;1.00
9215;DHT22;4642;51.364;6.788;2023-02-01T14:15:21;8.30;1.00
9215;DHT22;4642;51.364;6.788;2023-02-01T14:17:48;8.30;1.00
9215;DHT22;4642;51.364;6.788;2023-02-01T14:20:40;8.30;1.00
9215;DHT22;4642;51.364;6.788;2023-02-01T14:23:15;8.30;1.00
9215;DHT22;4642;51.364;6.788;2023-02-01T14:25:42;8.40;1.00
9215;DHT22;4642;51.364;6.788;2023-02-01T14:28:28;8.60;1.00
9215;DHT22;4642;51.364;6.788;2023-02-01T14:30:56;8.40;1.00
9215;DHT22;4642;51.364;6.788;2023-02-01T14:33:27;8.40;1.00
9215;DHT22;4642;51.364;6.788;2023-02-01T14:36:11;8.40;1.00
9215;DHT22;4642;51.364;6.788;2023-02-01T14:38:38;8.40;1.00
9215;DHT22;4642;51.364;6.788;2023-02-01T14:41:32;8.50;1.00
9215;DHT22;4642;51.364;6.788;2023-02-01T14:49:53;8.50;1.00
9215;DHT22;4642;51.364;6.788;2023-02-01T14:52:22;8.50;1.00
9215;DHT22;4642;51.364;6.788;2023-02-01T14:54:55;8.50;1.00
9215;DHT22;4642;51.364;6.788;2023-02-01T14:57:25;8.50;1.00
9215;DHT22;4642;51.364;6.788;2023-02-01T15:00:06;8.60;1.00
9215;DHT22;4642;51.364;6.788;2023-02-01T15:02:35;8.50;1.00
9215;DHT22;4642;51.364;6.788;2023-02-01T15:05:01;8.50;1.00
9215;DHT22;4642;51.364;6.788;2023-02-01T15:07:28;8.50;1.00
9215;DHT22;4642;51.364;6.788;2023-02-01T15:09:56;8.40;1.00
9215;DHT22;4642;51.364;6.788;2023-02-01T15:12:25;8.50;1.00
9215;DHT22;4642;51.364;6.788;2023-02-01T15:17:37;8.50;1.00
9215;DHT22;4642;51.364;6.788;2023-02-01T15:20:04;8.50;1.00
9215;DHT22;4642;51.364;6.788;2023-02-01T15:22:36;8.50;1.00
9215;DHT22;4642;51.364;6.788;2023-02-01T15:25:02;8.50;1.00
9215;DHT22;4642;51.364;6.788;2023-02-01T15:27:29;8.50;1.00
9215;DHT22;4642;51.364;6.788;2023-02-01T15:30:12;8.60;99.90
9215;DHT22;4642;51.364;6.788;2023-02-01T15:32:41;8.50;1.00
9215;DHT22;4642;51.364;6.788;2023-02-01T15:35:37;8.50;1.00
9215;DHT22;4642;51.364;6.788;2023-02-01T15:41:18;8.50;1.00
9215;DHT22;4642;51.364;6.788;2023-02-01T15:44:04;8.50;1.00
9215;DHT22;4642;51.364;6.788;2023-02-01T15:46:32;8.50;99.90
9215;DHT22;4642;51.364;6.788;2023-02-01T15:48:59;8.50;1.00
9215;DHT22;4642;51.364;6.788;2023-02-01T15:51:29;8.50;1.00
9215;DHT22;4642;51.364;6.788;2023-02-01T15:54:04;8.50;1.00
9215;DHT22;4642;51.364;6.788;2023-02-01T15:56:36;8.40;1.00
9215;DHT22;4642;51.364;6.788;2023-02-01T15:59:05;8.40;1.00
9215;DHT22;4642;51.364;6.788;2023-02-01T16:01:37;8.40;1.00
9215;DHT22;4642;51.364;6.788;2023-02-01T16:06:36;8.40;1.00
9215;DHT22;4642;51.364;6.788;2023-02-01T16:09:13;8.40;1.00
9215;DHT22;4642;51.364;6.788;2023-02-01T16:11:59;8.30;1.00
9215;DHT22;4642;51.364;6.788;2023-02-01T16:14:25;8.30;1.00
9215;DHT22;4642;51.364;6.788;2023-02-01T16:16:53;8.30;1.00
9215;DHT22;4642;51.364;6.788;2023-02-01T16:19:19;8.30;1.00
9215;DHT22;4642;51.364;6.788;2023-02-01T16:21:45;8.30;1.00
9215;DHT22;4642;51.364;6.788;2023-02-01T16:24:11;8.20;1.00
9215;DHT22;4642;51.364;6.788;2023-02-01T16:26:37;8.20;1.00
9215;DHT22;4642;51.364;6.788;2023-02-01T16:29:03;8.20;1.00
9215;DHT22;4642;51.364;6.788;2023-02-01T16:31:33;8.20;1.00
9215;DHT22;4642;51.364;6.788;2023-02-01T16:34:00;8.20;1.00
9215;DHT22;4642;51.364;6.788;2023-02-01T16:36:26;8.20;1.00
9215;DHT22;4642;51.364;6.788;2023-02-01T16:38:53;8.20;1.00
9215;DHT22;4642;51.364;6.788;2023-02-01T16:41:21;8.20;1.00
9215;DHT22;4642;51.364;6.788;2023-02-01T16:43:52;8.20;1.00
9215;DHT22;4642;51.364;6.788;2023-02-01T16:46:20;8.20;1.00
9215;DHT22;4642;51.364;6.788;2023-02-01T16:48:52;8.20;1.00
9215;DHT22;4642;51.364;6.788;2023-02-01T16:51:19;8.30;1.00
9215;DHT22;4642;51.364;6.788;2023-02-01T16:53:45;8.30;1.00
9215;DHT22;4642;51.364;6.788;2023-02-01T16:58:41;8.30;1.00
9215;DHT22;4642;51.364;6.788;2023-02-01T17:01:12;8.20;1.00
9215;DHT22;4642;51.364;6.788;2023-02-01T17:03:38;8.20;1.00
9215;DHT22;4642;51.364;6.788;2023-02-01T17:06:05;8.30;1.00
9215;DHT22;4642;51.364;6.788;2023-02-01T17:08:34;8.20;1.00
9215;DHT22;4642;51.364;6.788;2023-02-01T17:11:01;8.20;1.00
9215;DHT22;4642;51.364;6.788;2023-02-01T17:13:27;8.30;1.00
9215;DHT22;4642;51.364;6.788;2023-02-01T17:15:58;8.30;1.00
9215;DHT22;4642;51.364;6.788;2023-02-01T17:18:24;8.20;1.00
9215;DHT22;4642;51.364;6.788;2023-02-01T17:20:56;8.20;1.00
9215;DHT22;4642;51.364;6.788;2023-02-01T17:23:22;8.20;1.00
9215;DHT22;4642;51.364;6.788;2023-02-01T17:25:47;8.20;1.00
9215;DHT22;4642;51.364;6.788;2023-02-01T17:28:13;8.20;1.00
9215;DHT22;4642;51.364;6.788;2023-02-01T17:30:39;8.20;1.00
9215;DHT22;4642;51.364;6.788;2023-02-01T17:33:25;8.30;1.00
9215;DHT22;4642;51.364;6.788;2023-02-01T17:35:53;8.30;1.00
9215;DHT22;4642;51.364;6.788;2023-02-01T17:38:19;8.30;1.00
9215;DHT22;4642;51.364;6.788;2023-02-01T17:40:45;8.30;1.00
9215;DHT22;4642;51.364;6.788;2023-02-01T17:43:15;8.30;1.00
9215;DHT22;4642;51.364;6.788;2023-02-01T17:45:45;8.30;1.00
9215;DHT22;4642;51.364;6.788;2023-02-01T17:48:16;8.30;1.00
9215;DHT22;4642;51.364;6.788;2023-02-01T17:50:42;8.30;1.00
9215;DHT22;4642;51.364;6.788;2023-02-01T17:53:09;8.30;1.00
9215;DHT22;4642;51.364;6.788;2023-02-01T17:55:39;8.30;1.00
9215;DHT22;4642;51.364;6.788;2023-02-01T17:58:05;8.30;1.00
9215;DHT22;4642;51.364;6.788;2023-02-01T18:00:31;8.30;1.00
9215;DHT22;4642;51.364;6.788;2023-02-01T18:02:57;8.30;1.00
9215;DHT22;4642;51.364;6.788;2023-02-01T18:05:36;8.30;1.00
9215;DHT22;4642;51.364;6.788;2023-02-01T18:08:02;8.20;1.00
9215;DHT22;4642;51.364;6.788;2023-02-01T18:10:28;8.10;1.00
9215;DHT22;4642;51.364;6.788;2023-02-01T18:12:54;8.20;1.00
9215;DHT22;4642;51.364;6.788;2023-02-01T18:15:23;8.20;1.00
9215;DHT22;4642;51.364;6.788;2023-02-01T18:17:49;8.20;1.00
9215;DHT22;4642;51.364;6.788;2023-02-01T18:20:16;8.10;1.00
9215;DHT22;4642;51.364;6.788;2023-02-01T18:22:43;8.10;1.00
9215;DHT22;4642;51.364;6.788;2023-02-01T18:25:24;8.20;1.00
9215;DHT22;4642;51.364;6.788;2023-02-01T18:27:52;8.10;1.00
9215;DHT22;4642;51.364;6.788;2023-02-01T18:30:19;8.20;1.00
9215;DHT22;4642;51.364;6.788;2023-02-01T18:32:46;8.20;1.00